»·PEaware :: N4WZ KELP-KABQ

N4WZ :: KELP-KABQ

FLIGHT INFORMATION

Flight Status: Arrived
Operator: Privately registered:
United States
More flights under this callsign
Pilot: Ryan L. (28399)
Aircraft: CIRRUS VISIONJET
(SF50)
More flights by this aircraft type
Origin: KELP El Paso Intl
United States
Destination: KABQ Albuquerque Intl Sunport
United States
More flights between these airports :: More routes between these airports
Route: +
File this flight plan on PilotEdge
Remarks: FF
Altitude:
(Current/Filed)
16,500ft
Speed:
(Current/Filed)
0kts
Departed: 08-Apr-20 09:40 AM
Arrived: 08-Apr-20 10:33 AM
Distance/Time
Traveled:
194nm/0:53
Distance/Time
To Go:
Arrived

Flight Plot

Page will automatically refresh every two minutes.

Flight plan parsing failed; only flown route is shown


Map Options




Map Legend


Flown Route
Filed Route
Departure Airport
Arrival Airport
Navaid (VOR, NDB)
Fix

Horizontal Profiles

Position Reports

Time Latitude Longitude Heading Altitude Ground
Speed
08-Apr-20 09:31 31.798077 -106.377245 312 3940ft 0kts
08-Apr-20 09:32 31.798077 -106.377245 312 3940ft 0kts
08-Apr-20 09:33 31.798077 -106.377245 312 3940ft 0kts
08-Apr-20 09:34 31.798778 -106.377430 359 3940ft 0kts
08-Apr-20 09:35 31.798780 -106.372832 87 3947ft 18kts
08-Apr-20 09:36 31.799374 -106.367847 93 3955ft 17kts
08-Apr-20 09:37 31.799033 -106.361058 93 3946ft 20kts
08-Apr-20 09:38 31.799480 -106.360387 4 3944ft 2kts
08-Apr-20 09:39 31.801463 -106.374287 273 4098ft 110kts
08-Apr-20 09:40 31.789511 -106.410244 191 4514ft 161kts
08-Apr-20 09:41 31.768986 -106.364993 81 4523ft 182kts
08-Apr-20 09:42 31.779964 -106.304918 69 4960ft 198kts
08-Apr-20 09:43 31.821698 -106.271711 19 7511ft 188kts
08-Apr-20 09:44 31.863232 -106.279806 279 9542ft 176kts
08-Apr-20 09:45 31.880776 -106.333969 291 11679ft 178kts
08-Apr-20 09:46 31.903688 -106.384648 292 13712ft 174kts
08-Apr-20 09:47 31.926722 -106.433687 291 15624ft 168kts
08-Apr-20 09:48 31.950613 -106.484673 292 16524ft 210kts
08-Apr-20 09:49 31.983213 -106.553836 293 16527ft 265kts
08-Apr-20 09:50 32.020144 -106.632295 293 16525ft 273kts
08-Apr-20 09:51 32.057427 -106.711722 295 16530ft 282kts
08-Apr-20 09:52 32.122246 -106.770593 319 16533ft 299kts
08-Apr-20 09:53 32.191546 -106.825278 319 16536ft 300kts
08-Apr-20 09:54 32.260944 -106.880067 320 16508ft 301kts
08-Apr-20 09:55 32.330793 -106.935291 320 16508ft 302kts
08-Apr-20 09:56 32.400110 -106.991704 318 16508ft 301kts
08-Apr-20 09:57 32.467804 -107.049849 317 16508ft 301kts
08-Apr-20 09:58 32.534377 -107.109601 316 16508ft 301kts
08-Apr-20 09:59 32.604497 -107.164635 327 16508ft 307kts
08-Apr-20 10:00 32.681133 -107.209888 327 16505ft 307kts
08-Apr-20 10:01 32.756973 -107.256114 335 16494ft 311kts
08-Apr-20 10:02 32.843851 -107.270877 352 16490ft 320kts
08-Apr-20 10:03 32.932893 -107.273852 353 16490ft 321kts
08-Apr-20 10:04 33.022347 -107.275638 355 16491ft 322kts
08-Apr-20 10:05 33.112542 -107.277294 358 16489ft 324kts
08-Apr-20 10:06 33.202325 -107.278923 358 16489ft 324kts
08-Apr-20 10:07 33.292016 -107.274586 17 16487ft 324kts
08-Apr-20 10:08 33.379296 -107.247253 18 16489ft 324kts
08-Apr-20 10:09 33.464265 -107.211109 20 16498ft 324kts
08-Apr-20 10:10 33.549686 -107.173451 20 16500ft 325kts
08-Apr-20 10:11 33.635459 -107.135441 20 16512ft 325kts
08-Apr-20 10:12 33.720964 -107.097484 20 16522ft 325kts
08-Apr-20 10:13 33.803836 -107.060612 20 17469ft 304kts
08-Apr-20 10:14 33.886262 -107.023833 19 17531ft 327kts
08-Apr-20 10:15 33.973494 -106.984829 19 17529ft 331kts
08-Apr-20 10:16 34.060289 -106.945938 18 17550ft 331kts
08-Apr-20 10:17 34.145959 -106.907462 17 17526ft 324kts
08-Apr-20 10:18 34.229268 -106.869972 16 17527ft 315kts
08-Apr-20 10:19 34.310588 -106.833304 16 17502ft 310kts
08-Apr-20 10:20 34.392451 -106.804452 9 16247ft 301kts
08-Apr-20 10:21 34.472765 -106.780224 10 14821ft 289kts
08-Apr-20 10:22 34.549289 -106.757146 11 12536ft 280kts
08-Apr-20 10:23 34.622458 -106.735002 12 10921ft 271kts
08-Apr-20 10:24 34.696356 -106.712602 12 9511ft 269kts
08-Apr-20 10:25 34.764488 -106.691914 12 9474ft 225kts
08-Apr-20 10:26 34.827507 -106.693137 351 8259ft 231kts
08-Apr-20 10:27 34.888910 -106.707424 334 7507ft 211kts
08-Apr-20 10:28 34.939109 -106.728202 27 7510ft 187kts
08-Apr-20 10:29 34.972751 -106.690324 41 6982ft 136kts
08-Apr-20 10:30 34.998021 -106.659878 42 6141ft 104kts
08-Apr-20 10:31 35.017851 -106.636020 43 5446ft 90kts
08-Apr-20 10:32 35.029875 -106.622076 347 5310ft 8kts
08-Apr-20 10:33 35.031950 -106.621859 349 5309ft 4kts

Navigation Log

Ident Type
Flight plan parsing failed, navigation log unavailable